Latest Coastal Weather Observations for Wadeye (Port Keats)

IDD60701

Issued at 1:05 pm CST Sunday 26 October 2014 (issued every 10 minutes, with the page automatically refreshed every 10 minutes)

About coastal observations | Map of coastal stations | Coastal observations for NT | Marine services | Other Formats
Station Details ID: 014948 Name: PORT KEATS AIRPORT Lat: -14.25 Lon: 129.53 Height: 28.0 m
Data from the previous 72 hours. | See also: Recent months at Wadeye (Port Keats)
Date/Time
CST
Temp

°C
Wind Pressure Rain
since 9am
mm
Weather Cloud Vis
km
Sea
Height
m
Swell
Dir
 
Speed
knots
Gust
knots
hPa Trend Height
m
Period
s
Dir
26/01:00pm 32.5 NNW 10 15 1012.3 - 0.0 - - - - - - -
26/12:30pm 32.0 NW 9 14 1012.7 - 0.0 - - - - - - -
26/12:00pm 32.6 NW 9 12 1013.2 - 0.0 - - - - - - -
26/11:30am 31.5 NW 7 10 1013.7 - 0.0 - - - - - - -
26/11:00am 30.8 NW 9 12 1014.1 - 0.0 - - - - - - -
26/10:30am 31.5 NW 7 12 1014.3 - 0.0 - - - - - - -
26/10:00am 30.6 N 7 9 1014.6 - 0.0 - - - - - - -
26/09:30am 29.9 NNE 6 11 1014.6 - 0.0 - - - - - - -
26/09:00am 29.8 N 5 9 1014.8 - 0.4 - - - - - - -
26/08:30am 28.9 ENE 6 7 1014.7 - 0.4 - - - - - - -
26/08:00am 27.5 E 5 7 1014.5 - 0.4 - - - - - - -
26/07:30am 26.3 ESE 4 5 1014.2 - 0.4 - - - - - - -
26/07:00am 25.0 SSE 3 3 1013.6 - 0.4 - - - - - - -
26/06:30am 24.8 SE 2 4 1013.3 - 0.4 - - - - - - -
26/06:00am 24.7 ESE 1 4 1013.0 - 0.4 - - - - - - -
26/05:30am 24.9 SE 3 4 1012.7 - 0.4 - - - - - - -
26/05:00am 24.9 CALM 0 0 1012.3 - 0.4 - - - - - - -
26/04:30am 24.7 CALM 0 0 1012.1 - 0.4 - - - - - - -
26/04:00am 25.0 CALM 0 0 1011.9 - 0.4 - - - - - - -
26/03:30am 24.9 CALM 0 0 1011.8 - 0.4 - - - - - - -
26/03:00am 25.0 ENE 3 4 1012.0 - 0.4 - - - - - - -
26/02:30am 25.2 CALM 0 0 1012.0 - 0.4 - - - - - - -
26/02:00am 25.3 ENE 4 6 1012.5 - 0.4 - - - - - - -
26/01:30am 25.4 CALM 0 0 1012.1 - 0.4 - - - - - - -
26/01:00am 25.8 CALM 0 0 1012.2 - 0.4 - - - - - - -
26/12:30am 25.7 WSW 1 4 1012.5 - 0.4 - - - - - - -
26/12:00am 26.2 WNW 0 0 1012.6 - 0.4 - - - - - - -
 
Date/Time
CST
Temp

°C
Wind Pressure Rain
since 9am
mm
Weather Cloud Vis
km
Sea
Height
m
Swell
Dir
 
Speed
knots
Gust
knots
hPa Trend Height
m
Period
s
Dir
25/11:30pm 26.8 WNW 3 5 1012.7 - 0.4 - - - - - - -
25/11:00pm 26.9 W 3 5 1012.8 - 0.4 - - - - - - -
25/10:30pm 26.9 W 3 4 1013.1 - 0.4 - - - - - - -
25/10:00pm 27.1 W 4 6 1012.9 - 0.4 - - - - - - -
25/09:30pm 27.0 W 3 5 1012.8 - 0.4 - - - - - - -
25/09:00pm 27.5 WNW 3 5 1012.6 - 0.4 - - - - - - -
25/08:30pm 27.5 W 3 5 1012.4 - 0.4 - - - - - - -
25/08:00pm 27.8 W 3 5 1012.3 - 0.4 - - - - - - -
25/07:30pm 28.1 WNW 4 6 1011.9 - 0.4 - - - - - - -
25/07:00pm 28.5 W 7 11 1011.4 - 0.4 - - - - - - -
25/06:30pm 29.1 WNW 7 12 1011.0 - 0.4 - - - - - - -
25/06:00pm 29.6 NW 10 13 1010.9 - 0.4 - - - - - - -
25/05:30pm 29.5 W 8 11 1010.8 - 0.4 - - - - - - -
25/05:00pm 29.5 WNW 9 13 1010.9 - 0.4 - - - - - - -
25/04:30pm 30.8 W 8 13 1011.1 - 0.4 - - - - - - -
25/04:00pm 31.2 W 9 13 1011.3 - 0.4 - - - - - - -
25/03:30pm 30.4 WNW 7 12 1011.5 - 0.4 - - - - - - -
25/03:00pm 28.8 WNW 7 11 1011.6 - 0.4 Rain - - - - - -
25/02:30pm 30.9 NW 10 16 1011.8 - 0.0 - - - - - - -
25/02:00pm 32.6 W 9 14 1011.9 - 0.0 - - - - - - -
25/01:30pm 32.6 NW 11 16 1012.6 - 0.0 - - - - - - -
25/01:00pm 31.6 NW 11 14 1013.2 - 0.0 - - - - - - -
25/12:30pm 31.1 WNW 8 13 1013.7 - 0.0 - - - - - - -
25/12:00pm 31.9 NW 8 11 1014.2 - 0.0 - - - - - - -
25/11:30am 30.6 W 6 11 1014.6 - 0.0 - - - - - - -
25/11:00am 30.6 NW 6 11 1014.9 - 0.0 - - - - - - -
25/10:30am 31.2 W 7 11 1015.1 - 0.0 - - - - - - -
25/10:00am 30.5 NNW 7 9 1015.4 - 0.0 - - - - - - -
25/09:30am 30.6 NNW 6 9 1015.5 - 0.0 - - - - - - -
25/09:00am 30.5 NW 7 10 1015.4 - 0.0 - - - - - - -
25/08:30am 29.9 NNW 4 7 1015.4 - 0.0 - - - - - - -
25/08:00am 28.6 ENE 2 4 1015.3 - 0.0 - - - - - - -
25/07:30am 27.9 E 4 5 1015.0 - 0.0 - - - - - - -
25/07:00am 26.6 ESE 3 4 1014.7 - 0.0 - - - - - - -
25/06:30am 25.9 CALM 0 0 1014.2 - 0.0 - - - - - - -
25/06:00am 26.3 E 2 4 1013.9 - 0.0 - - - - - - -
25/05:30am 26.4 CALM 0 0 1013.6 - 0.0 - - - - - - -
25/05:00am 25.6 CALM 0 0 1013.0 - 0.0 - - - - - - -
25/04:30am 26.7 NNW 1 3 1012.6 - 0.0 - - - - - - -
25/04:00am 26.8 CALM 0 0 1012.5 - 0.0 - - - - - - -
25/03:30am 27.0 E 4 6 1012.7 - 0.0 - - - - - - -
25/03:00am 27.9 N 5 6 1012.1 - 0.0 - - - - - - -
25/02:30am 27.7 NW 3 6 1011.9 - 0.0 - - - - - - -
25/02:00am 27.8 NW 6 9 1011.8 - 0.0 - - - - - - -
25/01:30am 27.9 NNW 6 8 1012.2 - 0.0 - - - - - - -
25/01:00am 27.7 NNW 5 6 1012.3 - 0.0 - - - - - - -
25/12:30am 27.2 N 4 5 1012.5 - 0.0 - - - - - - -
25/12:00am 27.2 NNW 5 6 1012.2 - 0.0 - - - - - - -
 
Date/Time
CST
Temp

°C
Wind Pressure Rain
since 9am
mm
Weather Cloud Vis
km
Sea
Height
m
Swell
Dir
 
Speed
knots
Gust
knots
hPa Trend Height
m
Period
s
Dir
24/11:30pm 26.5 NW 3 5 1012.3 - 0.0 - - - - - - -
24/11:00pm 26.5 WNW 4 5 1012.1 - 0.0 - - - - - - -
24/10:30pm 27.9 NNW 3 5 1012.1 - 0.0 - - - - - - -
24/10:00pm 27.2 W 3 4 1011.9 - 0.0 - - - - - - -
24/09:30pm 28.0 W 3 5 1011.8 - 0.0 - - - - - - -
24/09:00pm 28.4 NNW 5 7 1011.4 - 0.0 - - - - - - -
24/08:30pm 28.6 NNW 6 8 1011.2 - 0.0 - - - - - - -
24/08:00pm 28.4 WNW 3 5 1010.8 - 0.0 - - - - - - -
24/07:30pm 28.7 WNW 4 6 1010.2 - 0.0 - - - - - - -
24/07:00pm 29.3 WNW 4 6 1010.2 - 0.0 - - - - - - -
24/06:30pm 30.0 W 6 11 1009.9 - 0.0 - - - - - - -
24/06:00pm 30.7 W 9 13 1009.7 - 0.0 - - - - - - -
24/05:30pm 31.1 W 9 16 1009.6 - 0.0 - - - - - - -
24/05:00pm 31.5 W 9 15 1009.4 - 0.0 - - - - - - -
24/04:30pm 31.3 WNW 10 15 1009.6 - 0.0 - - - - - - -
24/04:00pm 31.5 W 10 15 1009.9 - 0.0 - - - - - - -
24/03:30pm 32.2 W 9 12 1010.0 - 0.0 - - - - - - -
24/03:00pm 31.9 NW 10 16 1010.3 - 0.0 - - - - - - -
24/02:30pm 32.1 WNW 10 14 1010.4 - 0.0 - - - - - - -
24/02:00pm 32.0 W 9 12 1010.9 - 0.0 - - - - - - -
24/01:30pm 32.8 NNW 11 15 1011.2 - 0.0 - - - - - - -
24/01:00pm 32.3 NNW 8 13 1011.8 - 0.0 - - - - - - -
24/12:30pm 31.8 NNW 9 15 1012.4 - 0.0 - - - - - - -
24/12:00pm 31.4 NNW 8 13 1012.9 - 0.0 - - - - - - -
24/11:30am 31.1 NW 9 11 1013.3 - 0.0 - - - - - - -
24/11:00am 31.4 N 8 12 1013.6 - 0.0 - - - - - - -
24/10:30am 30.3 NNW 9 13 1014.1 - 0.0 - - - - - - -
24/10:00am 31.4 NNW 8 10 1014.3 - 0.0 - - - - - - -
24/09:30am 30.6 N 9 12 1014.4 - 0.0 - - - - - - -
24/09:00am 29.5 N 8 11 1014.2 - 1.4 - - - - - - -
24/08:30am 29.5 NNE 4 7 1014.0 - 1.4 - - - - - - -
24/08:00am 28.0 NE 3 5 1013.9 - 1.4 - - - - - - -
24/07:30am 26.7 ENE 5 6 1013.5 - 1.4 - - - - - - -
24/07:00am 26.1 SSE 2 4 1013.3 - 1.4 - - - - - - -
24/06:30am 25.1 CALM 0 0 1012.9 - 1.4 - - - - - - -
24/06:00am 25.8 N 7 9 1012.6 - 1.4 - - - - - - -
24/05:30am 26.2 NNW 7 10 1012.1 - 1.4 - - - - - - -
24/05:00am 26.0 ESE 5 6 1012.6 - 1.4 - - - - - - -
24/04:30am 26.3 NE 3 4 1012.1 - 1.4 - - - - - - -
24/04:00am 26.8 NW 4 6 1011.7 - 1.4 - - - - - - -
24/03:30am 26.1 WNW 3 5 1011.5 - 1.4 - - - - - - -
24/03:00am 26.6 N 1 4 1011.7 - 1.4 - - - - - - -
24/02:30am 26.3 NW 3 5 1011.8 - 1.4 - - - - - - -
24/02:00am 24.8 W 4 5 1011.8 - 1.4 - - - - - - -
24/01:30am 25.4 WNW 4 6 1011.9 - 1.4 - - - - - - -
24/01:00am 24.7 W 3 4 1012.0 - 1.4 - - - - - - -
24/12:30am 25.3 W 2 4 1012.2 - 1.4 - - - - - - -
24/12:00am 24.8 CALM 0 0 1012.5 - 1.4 - - - - - - -
 
Date/Time
CST
Temp

°C
Wind Pressure Rain
since 9am
mm
Weather Cloud Vis
km
Sea
Height
m
Swell
Dir
 
Speed
knots
Gust
knots
hPa Trend Height
m
Period
s
Dir
23/11:30pm 25.4 CALM 0 0 1012.8 - 1.4 - - - - - - -
23/11:00pm 25.9 CALM 0 0 1012.9 - 1.4 - - - - - - -
23/10:30pm 26.2 CALM 0 0 1012.7 - 1.4 - - - - - - -
23/10:00pm 26.7 CALM 0 0 1012.5 - 1.4 - - - - - - -
23/09:30pm 27.5 NNW 3 5 1012.2 - 1.4 - - - - - - -
23/09:00pm 27.5 NW 4 6 1011.7 - 1.4 - - - - - - -
23/08:30pm 27.5 W 3 5 1011.4 - 1.4 - - - - - - -
23/08:00pm 27.8 W 4 7 1011.1 - 1.4 - - - - - - -
23/07:30pm 28.0 W 4 9 1010.9 - 1.4 - - - - - - -
23/07:00pm 28.3 W 5 9 1010.7 - 1.4 - - - - - - -
23/06:30pm 29.0 WNW 7 10 1010.4 - 1.4 - - - - - - -
23/06:00pm 29.5 W 9 15 1009.8 - 1.4 - - - - - - -
23/05:30pm 30.4 W 10 14 1009.8 - 1.4 - - - - - - -
23/05:00pm 30.4 NW 8 11 1010.4 - 1.4 - - - - - - -
23/04:30pm 31.8 W 7 12 1010.0 - 1.4 - - - - - - -
23/04:00pm 31.1 W 10 15 1010.1 - 1.4 - - - - - - -
23/03:30pm 31.6 WNW 10 17 1010.0 - 1.4 - - - - - - -
23/03:00pm 31.0 WNW 9 15 1010.4 - 1.4 - - - - - - -
23/02:30pm 31.1 WNW 11 16 1010.8 - 1.4 - - - - - - -
23/02:00pm 31.2 WNW 7 12 1011.2 - 1.4 - - - - - - -
23/01:30pm 29.3 W 7 11 1011.7 - 1.4 - - - - - - -

Other Formats:

Comma delimited format used in spreadsheet applications
http://www.bom.gov.au/fwo/IDD60701/IDD60701.95111.axf

JavaScript Object Notation format (JSON) in row-major order
http://www.bom.gov.au/fwo/IDD60701/IDD60701.95111.json